createdAt,value
2023-08-25T00:00:13.230Z,19.6
2023-08-25T00:02:16.249Z,19.7
2023-08-25T00:03:19.342Z,19.7
2023-08-25T00:11:34.220Z,19.6
2023-08-25T00:13:37.206Z,19.6
2023-08-25T00:17:43.178Z,19.5
2023-08-25T00:23:52.047Z,19.6
2023-08-25T00:46:30.994Z,19.5
2023-08-25T00:48:33.932Z,19.4
2023-08-25T00:50:36.909Z,19.5
2023-08-25T00:52:39.907Z,19.4
2023-08-25T01:01:21.333Z,19.5
2023-08-25T01:03:24.326Z,19.4
2023-08-25T01:05:27.234Z,19.4
2023-08-25T01:07:33.335Z,19.4
2023-08-25T01:09:36.321Z,19.5
2023-08-25T01:11:39.288Z,19.4
2023-08-25T01:13:42.278Z,19.3
2023-08-25T01:15:45.276Z,19.3
2023-08-25T01:17:48.333Z,19.4
2023-08-25T01:19:51.225Z,19.4
2023-08-25T01:21:57.294Z,19.4
2023-08-25T01:24:00.290Z,19.2
2023-08-25T01:26:03.259Z,19.2
2023-08-25T01:28:06.218Z,19.3
2023-08-25T01:30:09.253Z,19.3
2023-08-25T01:32:12.221Z,19.2
2023-08-25T01:34:15.206Z,19.2
2023-08-25T01:36:21.325Z,19.2
2023-08-25T01:38:24.301Z,19.2
2023-08-25T01:40:27.306Z,19.2
2023-08-25T01:42:30.293Z,19.3
2023-08-25T01:44:33.463Z,19.2
2023-08-25T01:46:36.316Z,19.2
2023-08-25T01:55:54.322Z,19.1
2023-08-25T01:57:57.304Z,19.1
2023-08-25T02:00:00.315Z,19.2
2023-08-25T02:02:03.339Z,19.2
2023-08-25T02:04:09.449Z,19.1
2023-08-25T02:06:12.431Z,19.1
2023-08-25T02:08:15.333Z,19
2023-08-25T02:10:18.337Z,19
2023-08-25T02:12:21.299Z,19
2023-08-25T02:14:24.268Z,19
2023-08-25T02:16:27.353Z,19
2023-08-25T02:18:33.372Z,19
2023-08-25T02:20:36.368Z,19
2023-08-25T02:22:39.345Z,19
2023-08-25T02:24:42.316Z,19.1
2023-08-25T02:26:45.291Z,19.2
2023-08-25T02:28:48.279Z,19.1
2023-08-25T02:30:51.390Z,19.2
2023-08-25T02:32:57.419Z,19.1
2023-08-25T02:35:00.377Z,19.1
2023-08-25T02:37:03.362Z,19.1
2023-08-25T02:39:06.362Z,19.1
2023-08-25T02:41:09.308Z,19.2
2023-08-25T02:43:12.298Z,19.3
2023-08-25T02:45:15.306Z,19.3
2023-08-25T02:47:21.368Z,19.3
2023-08-25T02:49:24.386Z,19.3
2023-08-25T02:51:27.338Z,19.3
2023-08-25T02:52:30.389Z,19.2
2023-08-25T03:00:45.627Z,19.3
2023-08-25T03:04:51.352Z,19.3
2023-08-25T03:06:54.323Z,19.3
2023-08-25T03:08:57.324Z,19.3
2023-08-25T03:11:00.294Z,19.4
2023-08-25T03:13:03.265Z,19.2
2023-08-25T03:17:12.329Z,19.4
2023-08-25T03:19:15.308Z,19.4
2023-08-25T03:21:18.302Z,19.4
2023-08-25T03:25:24.288Z,19.4
2023-08-25T03:27:27.271Z,19.3
2023-08-25T03:29:33.335Z,19.4
2023-08-25T03:31:36.331Z,19.3
2023-08-25T03:33:39.283Z,19.2
2023-08-25T03:37:45.215Z,19.4
2023-08-25T03:41:51.155Z,19.4
2023-08-25T03:43:57.255Z,19.3
2023-08-25T03:48:03.288Z,19.3
2023-08-25T03:49:06.236Z,19.4
2023-08-25T03:51:09.183Z,19.4
2023-08-25T03:53:12.161Z,19.3
2023-08-25T03:55:15.174Z,19.4
2023-08-25T03:57:21.218Z,19.3
2023-08-25T03:59:24.207Z,19.2
2023-08-25T04:01:27.175Z,19.4
2023-08-25T04:03:30.258Z,19.3
2023-08-25T04:05:33.123Z,19.4
2023-08-25T04:07:36.057Z,19.4
2023-08-25T04:13:48.071Z,19.5
2023-08-25T04:15:51.045Z,19.5
2023-08-25T04:17:54.239Z,19.3
2023-08-25T04:19:57.016Z,19.4
2023-08-25T04:21:59.954Z,19.4
2023-08-25T04:24:02.934Z,19.4
2023-08-25T04:26:09.017Z,19.5
2023-08-25T04:30:14.924Z,19.4
2023-08-25T04:34:20.874Z,19.5
2023-08-25T04:36:23.843Z,19.5
2023-08-25T04:38:28.376Z,19.6
2023-08-25T04:40:34.431Z,19.6
2023-08-25T04:47:01.914Z,19.4
2023-08-25T04:49:04.879Z,19.6
2023-08-25T04:51:07.856Z,19.4
2023-08-25T04:55:16.884Z,19.6
2023-08-25T04:59:22.815Z,19.6
2023-08-25T05:11:43.756Z,19.6
2023-08-25T05:34:19.551Z,19.6
2023-08-25T05:40:31.617Z,19.7
2023-08-25T05:41:34.656Z,19.6
2023-08-25T05:43:37.608Z,19.6
2023-08-25T05:45:40.590Z,19.6
2023-08-25T05:47:43.614Z,19.7
2023-08-25T05:51:52.660Z,19.7
2023-08-25T05:55:58.585Z,19.7
2023-08-25T05:58:01.565Z,19.8
2023-08-25T06:00:04.534Z,19.7
2023-08-25T06:02:07.509Z,19.9
2023-08-25T06:04:13.681Z,20
2023-08-25T06:06:16.579Z,19.9
2023-08-25T06:08:19.560Z,20.1
2023-08-25T06:10:22.510Z,20.3
2023-08-25T06:12:25.490Z,20.5
2023-08-25T06:14:28.462Z,20.6
2023-08-25T06:16:31.431Z,20.7
2023-08-25T06:20:40.514Z,20.7
2023-08-25T06:22:43.474Z,20.9
2023-08-25T06:24:46.412Z,21
2023-08-25T06:26:49.379Z,20.9
2023-08-25T06:28:52.323Z,20.8
2023-08-25T06:30:55.295Z,20.9
2023-08-25T06:33:02.349Z,20.9
2023-08-25T06:35:05.258Z,21
2023-08-25T06:37:08.205Z,21.2
2023-08-25T06:38:11.262Z,21.3
2023-08-25T06:40:14.180Z,21.3
2023-08-25T06:44:20.127Z,20.9
2023-08-25T06:46:26.177Z,20.8
2023-08-25T06:48:29.111Z,20.8
2023-08-25T06:50:32.038Z,20.8
2023-08-25T06:52:34.980Z,20.6
2023-08-25T06:54:37.960Z,20.6
2023-08-25T06:56:40.885Z,20.7
2023-08-25T06:58:43.839Z,20.5
2023-08-25T07:00:49.938Z,20.5
2023-08-25T07:02:52.856Z,20.4
2023-08-25T07:04:55.823Z,20.3
2023-08-25T07:06:58.728Z,20.1
2023-08-25T07:15:13.626Z,20.5
2023-08-25T07:17:16.595Z,20.5
2023-08-25T07:19:19.535Z,20.3
2023-08-25T07:21:22.463Z,20.5
2023-08-25T07:23:25.415Z,20.6
2023-08-25T07:25:28.449Z,20.5
2023-08-25T07:27:31.315Z,20.4
2023-08-25T07:31:40.354Z,20.4
2023-08-25T07:33:43.277Z,20.3
2023-08-25T07:34:46.300Z,20.4
2023-08-25T07:36:49.267Z,20.5
2023-08-25T07:40:55.155Z,20.4
2023-08-25T07:43:01.237Z,20.4
2023-08-25T07:45:04.190Z,20.5
2023-08-25T07:49:10.075Z,20.8
2023-08-25T07:51:16.732Z,20.6
2023-08-25T07:57:24.978Z,20.7
2023-08-25T07:59:27.913Z,20.7
2023-08-25T08:01:30.888Z,20.8
2023-08-25T08:05:36.742Z,20.9
2023-08-25T08:09:42.649Z,21
2023-08-25T08:11:48.695Z,21
2023-08-25T08:13:51.647Z,20.9
2023-08-25T08:17:57.717Z,21.2
2023-08-25T08:20:00.491Z,21.1
2023-08-25T08:22:03.444Z,21.1
2023-08-25T08:26:12.447Z,21.2
2023-08-25T08:28:15.381Z,21.1
2023-08-25T08:30:18.289Z,20.9
2023-08-25T08:32:47.581Z,21.2
2023-08-25T08:34:50.555Z,21.1
2023-08-25T08:47:11.247Z,20.8
2023-08-25T08:49:14.169Z,20.8
2023-08-25T09:15:58.645Z,20.9
2023-08-25T09:20:04.513Z,20.9
2023-08-25T09:27:19.530Z,20.5
2023-08-25T09:29:22.493Z,20.6
2023-08-25T09:31:25.433Z,20.5
2023-08-25T09:33:28.370Z,20.6
2023-08-25T09:35:35.040Z,20.7
2023-08-25T09:37:37.980Z,20.7
2023-08-25T09:39:40.955Z,20.6
2023-08-25T09:41:43.910Z,20.7
2023-08-25T09:45:49.813Z,20.7
2023-08-25T09:52:01.788Z,20.5
2023-08-25T09:54:04.735Z,20.6
2023-08-25T09:56:07.695Z,20.5
2023-08-25T09:58:10.621Z,20.6
2023-08-25T10:00:13.560Z,20.4
2023-08-25T10:02:16.551Z,20.5
2023-08-25T10:04:22.594Z,20.6
2023-08-25T10:06:25.578Z,20.6
2023-08-25T10:12:34.432Z,20.6
2023-08-25T10:16:40.313Z,20.8
2023-08-25T10:23:55.292Z,20.7
2023-08-25T10:25:58.258Z,20.8
2023-08-25T10:28:01.189Z,20.6
2023-08-25T10:30:04.158Z,20.5
2023-08-25T10:32:11.786Z,20.5
2023-08-25T10:34:14.730Z,20.5
2023-08-25T10:36:17.662Z,20.3
2023-08-25T10:40:23.578Z,20.4
2023-08-25T10:42:26.534Z,20.5
2023-08-25T10:44:29.484Z,20.4
2023-08-25T10:46:47.551Z,20.3
2023-08-25T10:52:44.399Z,20.4
2023-08-25T10:54:47.355Z,20.4
2023-08-25T10:56:50.288Z,20.5
2023-08-25T10:58:53.249Z,20.6
2023-08-25T11:00:59.363Z,21.1
2023-08-25T11:03:02.328Z,21.1
2023-08-25T11:05:05.226Z,21.1
2023-08-25T11:07:08.184Z,21.1
2023-08-25T11:09:11.123Z,21.2
2023-08-25T11:11:14.070Z,21.2
2023-08-25T11:13:17.012Z,21.5
2023-08-25T11:19:28.963Z,22.4
2023-08-25T11:20:32.000Z,22.3
2023-08-25T11:22:34.945Z,22.4
2023-08-25T11:24:37.849Z,22.4
2023-08-25T11:26:40.759Z,22.6
2023-08-25T11:28:46.846Z,23.7
2023-08-25T11:32:52.720Z,23.3
2023-08-25T11:34:55.576Z,23.4
2023-08-25T11:36:58.467Z,23.5
2023-08-25T11:45:13.206Z,23.1
2023-08-25T11:47:16.109Z,23.1
2023-08-25T11:49:18.956Z,23
2023-08-25T11:51:21.870Z,23.1
2023-08-25T11:55:27.610Z,23.4
2023-08-25T12:01:39.394Z,24.5
2023-08-25T12:09:50.834Z,22.8
2023-08-25T12:11:56.839Z,22.6
2023-08-25T12:16:02.562Z,22.6
2023-08-25T12:18:31.669Z,22.7
2023-08-25T12:20:34.615Z,22.7
2023-08-25T12:22:37.402Z,22.6
2023-08-25T12:26:46.279Z,22.4
2023-08-25T12:28:49.154Z,22.4
2023-08-25T12:30:52.036Z,22.5
2023-08-25T12:32:55.000Z,23.1
2023-08-25T12:34:57.765Z,23.1
2023-08-25T12:37:00.652Z,22.5
2023-08-25T12:39:06.649Z,22.5
2023-08-25T12:41:09.536Z,22.5
2023-08-25T12:43:12.398Z,22.6
2023-08-25T12:45:15.289Z,22.6
2023-08-25T12:47:18.138Z,22.5
2023-08-25T12:49:21.013Z,22.4
2023-08-25T12:51:23.900Z,22.4
2023-08-25T12:53:29.938Z,22.4
2023-08-25T12:59:38.547Z,23.1
2023-08-25T13:01:41.447Z,23.4
2023-08-25T13:03:44.459Z,23.2
2023-08-25T13:05:47.213Z,23.1
2023-08-25T13:07:53.558Z,23.4
2023-08-25T13:09:56.076Z,23.4
2023-08-25T13:21:16.585Z,25.2
2023-08-25T13:23:34.199Z,25
2023-08-25T13:25:22.288Z,25.4
2023-08-25T13:27:25.112Z,26.4
2023-08-25T13:29:27.954Z,26.4
2023-08-25T13:31:30.797Z,26.9
2023-08-25T13:33:35.474Z,26.7
2023-08-25T13:35:39.536Z,27.2
2023-08-25T13:39:45.048Z,27.5
2023-08-25T13:41:47.808Z,28.1
2023-08-25T13:43:50.522Z,28.1
2023-08-25T13:45:53.276Z,28.9
2023-08-25T13:50:01.452Z,29.3
2023-08-25T13:52:04.017Z,28.9
2023-08-25T13:56:09.088Z,28.8
2023-08-25T13:58:11.601Z,29.7
2023-08-25T14:00:14.144Z,29
2023-08-25T14:02:16.585Z,29.5
2023-08-25T14:04:22.120Z,27.2
2023-08-25T14:06:24.650Z,26.5
2023-08-25T14:11:32.360Z,26
2023-08-25T14:13:34.854Z,25.7
2023-08-25T14:15:37.420Z,25.5
2023-08-25T14:17:43.079Z,25.7
2023-08-25T14:19:45.576Z,25.5
2023-08-25T14:21:48.115Z,25.6
2023-08-25T14:23:50.681Z,25
2023-08-25T14:25:53.253Z,24.8
2023-08-25T14:27:56.205Z,24.4
2023-08-25T14:30:00.652Z,24.3
2023-08-25T14:32:04.342Z,24
2023-08-25T14:34:07.066Z,23.9
2023-08-25T14:38:12.582Z,23.7
2023-08-25T14:48:29.712Z,23.8
2023-08-25T14:52:35.330Z,24.3
2023-08-25T14:54:38.160Z,24
2023-08-25T14:58:43.802Z,23.5
2023-08-25T15:02:52.838Z,23.1
2023-08-25T15:04:56.195Z,23
2023-08-25T15:05:58.491Z,23.2
2023-08-25T15:08:01.340Z,23.2
2023-08-25T15:10:04.199Z,22.9
2023-08-25T15:14:13.079Z,23.4
2023-08-25T15:16:15.971Z,24.4
2023-08-25T15:18:18.841Z,26.7
2023-08-25T15:30:39.058Z,26.7
2023-08-25T15:36:47.492Z,27.1
2023-08-25T15:42:59.061Z,24.4
2023-08-25T15:45:01.861Z,24
2023-08-25T15:53:15.943Z,22.9
2023-08-25T15:55:15.896Z,23
2023-08-25T16:03:56.620Z,22.2
2023-08-25T16:08:02.300Z,21.9
2023-08-25T16:10:08.303Z,21.7
2023-08-25T16:12:11.168Z,21.7
2023-08-25T16:14:14.029Z,21.6
2023-08-25T16:16:16.930Z,21.7
2023-08-25T16:26:35.967Z,21.7
2023-08-25T16:28:38.871Z,21.8
2023-08-25T16:30:41.759Z,22
2023-08-25T16:32:44.723Z,21.9
2023-08-25T16:34:47.578Z,21.7
2023-08-25T16:36:50.476Z,21.7
2023-08-25T16:38:56.530Z,21.4
2023-08-25T16:43:02.355Z,21.4
2023-08-25T16:45:05.230Z,21.5
2023-08-25T16:49:11.074Z,21.6
2023-08-25T16:51:13.966Z,21.8
2023-08-25T16:53:20.027Z,22
2023-08-25T16:55:22.945Z,22.2
2023-08-25T16:58:28.980Z,21.9
2023-08-25T17:00:31.837Z,21.8
2023-08-25T17:04:37.606Z,21.8
2023-08-25T17:06:43.661Z,21.5
2023-08-25T17:08:46.577Z,21.4
2023-08-25T17:12:52.630Z,21.7
2023-08-25T17:14:55.288Z,21.5
2023-08-25T17:16:58.229Z,21.4
2023-08-25T17:19:01.145Z,21.4
2023-08-25T17:21:07.193Z,21.3
2023-08-25T17:23:10.110Z,21.2
2023-08-25T17:25:13.016Z,21.3
2023-08-25T17:27:15.943Z,21
2023-08-25T17:29:18.859Z,20.9
2023-08-25T17:31:21.792Z,21
2023-08-25T17:33:24.695Z,20.9
2023-08-25T17:35:30.749Z,21
2023-08-25T17:37:34.396Z,20.8
2023-08-25T17:39:37.306Z,20.9
2023-08-25T17:41:40.292Z,21.1
2023-08-25T17:43:43.224Z,21
2023-08-25T17:45:46.137Z,21
2023-08-25T17:47:49.091Z,20.9
2023-08-25T17:49:55.296Z,20.9
2023-08-25T17:51:58.039Z,20.8
2023-08-25T17:54:00.982Z,20.8
2023-08-25T17:59:09.905Z,20.6
2023-08-25T18:03:21.058Z,20.7
2023-08-25T18:05:21.807Z,20.7
2023-08-25T18:07:24.733Z,20.5
2023-08-25T18:11:30.610Z,20.6
2023-08-25T18:19:45.500Z,20.5
2023-08-25T18:23:51.393Z,20.5
2023-08-25T18:27:57.314Z,20.2
2023-08-25T18:30:00.241Z,20.3
2023-08-25T18:32:06.318Z,20.1
2023-08-25T18:34:09.279Z,20.1
2023-08-25T18:36:12.226Z,20.1
2023-08-25T18:38:15.155Z,20.2
2023-08-25T18:40:18.121Z,20.1
2023-08-25T18:42:21.048Z,20.2
2023-08-25T18:44:24.044Z,19.9
2023-08-25T18:48:33.040Z,19.9
2023-08-25T18:50:35.985Z,19.9
2023-08-25T18:51:39.032Z,19.9
2023-08-25T18:53:41.980Z,20
2023-08-25T18:55:44.928Z,20
2023-08-25T18:57:47.888Z,20
2023-08-25T18:59:54.070Z,19.9
2023-08-25T19:01:56.905Z,19.9
2023-08-25T19:06:02.792Z,19.9
2023-08-25T19:08:05.797Z,19.9
2023-08-25T19:10:08.709Z,19.7
2023-08-25T19:14:17.722Z,19.6
2023-08-25T19:16:20.736Z,19.6
2023-08-25T19:18:23.614Z,19.7
2023-08-25T19:22:29.508Z,19.6
2023-08-25T19:24:32.464Z,19.7
2023-08-25T19:26:35.433Z,19.6
2023-08-25T19:28:42.891Z,19.6
2023-08-25T19:36:53.223Z,19.5
2023-08-25T19:43:05.202Z,19.4
2023-08-25T19:45:08.149Z,19.4
2023-08-25T19:47:11.104Z,19.3
2023-08-25T19:49:40.392Z,19.3
2023-08-25T19:51:43.321Z,19.3
2023-08-25T19:53:46.252Z,19.3
2023-08-25T19:55:52.381Z,19.3
2023-08-25T19:57:55.284Z,19.2
2023-08-25T20:12:19.145Z,18.9
2023-08-25T20:14:22.093Z,18.8
2023-08-25T20:16:25.034Z,18.8
2023-08-25T20:18:27.977Z,18.7
2023-08-25T20:20:30.919Z,18.6
2023-08-25T20:22:33.881Z,18.7
2023-08-25T20:24:40.028Z,18.6
2023-08-25T20:26:42.977Z,18.7
2023-08-25T20:28:45.930Z,18.5
2023-08-25T20:30:49.061Z,18.5
2023-08-25T20:32:51.890Z,18.5
2023-08-25T20:34:54.845Z,18.5
2023-08-25T20:36:57.821Z,18.4
2023-08-25T20:43:09.872Z,18.2
2023-08-25T20:44:12.898Z,18.2
2023-08-25T20:48:18.836Z,18.1
2023-08-25T20:50:21.818Z,18
2023-08-25T20:52:27.914Z,18
2023-08-25T20:54:30.886Z,18
2023-08-25T20:56:33.857Z,18
2023-08-25T20:58:36.841Z,18.1
2023-08-25T21:00:39.794Z,18
2023-08-25T21:02:42.916Z,18.1
2023-08-25T21:04:45.773Z,17.9
2023-08-25T21:06:51.873Z,17.9
2023-08-25T21:08:54.870Z,17.9
2023-08-25T21:13:00.826Z,17.8
2023-08-25T21:15:03.828Z,17.9
2023-08-25T21:17:06.809Z,17.9
2023-08-25T21:19:09.786Z,17.8
2023-08-25T21:21:15.917Z,17.9
2023-08-25T21:25:21.858Z,17.9
2023-08-25T21:27:24.859Z,17.7
2023-08-25T21:31:30.900Z,17.7
2023-08-25T21:33:33.831Z,17.8
2023-08-25T21:35:39.935Z,17.8
2023-08-25T21:39:45.923Z,17.8
2023-08-25T21:55:13.036Z,17.6
2023-08-25T22:17:52.188Z,17.3
2023-08-25T22:20:05.819Z,17.4
2023-08-25T22:21:59.678Z,17.3
2023-08-25T22:24:02.642Z,17.3
2023-08-25T22:26:05.633Z,17.4
2023-08-25T22:28:08.613Z,17.3
2023-08-25T22:30:11.621Z,17.2
2023-08-25T22:34:14.662Z,17.3
2023-08-25T22:34:20.737Z,17.3
2023-08-25T22:36:23.700Z,17.2
2023-08-25T22:51:50.820Z,17.3
2023-08-25T22:53:53.829Z,17.3
2023-08-25T23:02:08.992Z,17.1
2023-08-25T23:04:11.956Z,17.1
2023-08-25T23:24:45.233Z,16.9
2023-08-25T23:26:48.012Z,16.9
2023-08-25T23:28:54.124Z,17
2023-08-25T23:30:57.101Z,17
2023-08-25T23:33:00.138Z,17.1
2023-08-25T23:35:23.652Z,16.9
2023-08-25T23:39:29.654Z,16.9
2023-08-25T23:41:35.754Z,16.9
2023-08-25T23:43:38.761Z,16.9
2023-08-25T23:45:41.772Z,17
2023-08-25T23:47:44.750Z,16.9
2023-08-25T23:49:47.738Z,16.9
2023-08-25T23:51:50.727Z,16.9
2023-08-25T23:53:53.681Z,16.9
2023-08-25T23:55:59.830Z,17
2023-08-25T23:58:02.806Z,17
